KOCF/OCF METAR and TAF weather

Enter ICAO airport designator
Station Type Date Time Source
KOCF METAR 2019/02/18 03:51 UTC NOAA

KOCF 180351Z AUTO 21003KT 10SM OVC055 21/18 A3001 RMK AO2 SLP164 T02060183 $


Station Type Date Time Source
KOCF Decoded METAR 2019/02/18 03:51 UTC NOAA

Ocala, Ocala International Airport-Jim Taylor Field, FL, United States (KOCF) 29-10N 082-13W
Feb 17, 2019 - 10:51 PM EST / 2019.02.18 0351 UTC
Wind: from the SSW (210 degrees) at 3 MPH (3 KT):0
Visibility: 10 mile(s):0
Sky conditions: overcast
Temperature: 69.1 F (20.6 C)
Dew Point: 64.9 F (18.3 C)
Relative Humidity: 86%
Pressure (altimeter): 30.01 in. Hg (1016 hPa)
ob: KOCF 180351Z AUTO 21003KT 10SM OVC055 21/18 A3001 RMK AO2 SLP164 T02060183
cycle: 4

Station Type Date Time Source
KOCF TAF UTC NOAA

Error!


Example: see airport list